sensor_id;sensor_type;location;lat;lon;timestamp;noise_LAeq;noise_LA_min;noise_LA_max;noise_LA01;noise_LA95
67306;Laerm;57661;51.436;5.978;2024-03-07T00:00:05;28.22;27.32;29.07;;
67306;Laerm;57661;51.436;5.978;2024-03-07T00:00:24;28.59;26.95;38.57;;
67306;Laerm;57661;51.436;5.978;2024-03-07T00:00:34;28.19;27.12;29.19;;
67306;Laerm;57661;51.436;5.978;2024-03-07T00:00:45;28.20;27.36;29.10;;
67306;Laerm;57661;51.436;5.978;2024-03-07T00:00:55;28.20;27.28;28.99;;
67306;Laerm;57661;51.436;5.978;2024-03-07T00:01:06;28.21;27.10;29.04;;
67306;Laerm;57661;51.436;5.978;2024-03-07T00:01:17;28.23;27.22;29.09;;
67306;Laerm;57661;51.436;5.978;2024-03-07T00:01:27;28.20;27.24;29.15;;
67306;Laerm;57661;51.436;5.978;2024-03-07T00:01:41;28.22;27.08;29.31;;
67306;Laerm;57661;51.436;5.978;2024-03-07T00:01:52;28.23;26.97;29.32;;
67306;Laerm;57661;51.436;5.978;2024-03-07T00:02:02;28.18;27.35;28.96;;
67306;Laerm;57661;51.436;5.978;2024-03-07T00:02:12;28.19;27.22;29.47;;
67306;Laerm;57661;51.436;5.978;2024-03-07T00:02:23;28.18;27.28;29.33;;
67306;Laerm;57661;51.436;5.978;2024-03-07T00:02:33;28.25;27.04;32.12;;
67306;Laerm;57661;51.436;5.978;2024-03-07T00:02:44;28.19;27.29;29.06;;
67306;Laerm;57661;51.436;5.978;2024-03-07T00:02:55;28.20;26.90;29.13;;
67306;Laerm;57661;51.436;5.978;2024-03-07T00:03:05;28.21;27.40;28.93;;
67306;Laerm;57661;51.436;5.978;2024-03-07T00:03:15;28.18;27.28;29.32;;
67306;Laerm;57661;51.436;5.978;2024-03-07T00:03:27;28.22;27.15;29.45;;
67306;Laerm;57661;51.436;5.978;2024-03-07T00:03:37;28.20;27.28;29.09;;
67306;Laerm;57661;51.436;5.978;2024-03-07T00:03:49;28.20;27.34;29.00;;
67306;Laerm;57661;51.436;5.978;2024-03-07T00:04:00;28.20;26.89;29.12;;
67306;Laerm;57661;51.436;5.978;2024-03-07T00:04:10;28.21;27.22;29.25;;
67306;Laerm;57661;51.436;5.978;2024-03-07T00:04:20;28.22;27.26;29.12;;
67306;Laerm;57661;51.436;5.978;2024-03-07T00:04:31;28.22;27.38;29.14;;
67306;Laerm;57661;51.436;5.978;2024-03-07T00:04:41;28.26;27.20;29.03;;
67306;Laerm;57661;51.436;5.978;2024-03-07T00:04:51;28.26;27.03;29.24;;
67306;Laerm;57661;51.436;5.978;2024-03-07T00:05:01;28.23;27.18;29.31;;
67306;Laerm;57661;51.436;5.978;2024-03-07T00:05:12;28.21;27.24;29.11;;
67306;Laerm;57661;51.436;5.978;2024-03-07T00:05:22;28.23;27.22;29.25;;
67306;Laerm;57661;51.436;5.978;2024-03-07T00:05:35;28.20;27.34;29.22;;
67306;Laerm;57661;51.436;5.978;2024-03-07T00:05:46;28.20;27.30;29.04;;
67306;Laerm;57661;51.436;5.978;2024-03-07T00:05:56;28.21;27.25;29.01;;
67306;Laerm;57661;51.436;5.978;2024-03-07T00:06:07;28.20;26.95;28.99;;
67306;Laerm;57661;51.436;5.978;2024-03-07T00:06:18;28.22;27.25;29.08;;
67306;Laerm;57661;51.436;5.978;2024-03-07T00:06:31;28.23;27.09;30.00;;
67306;Laerm;57661;51.436;5.978;2024-03-07T00:06:43;28.18;27.25;29.14;;
67306;Laerm;57661;51.436;5.978;2024-03-07T00:06:54;28.21;27.23;29.14;;
67306;Laerm;57661;51.436;5.978;2024-03-07T00:07:04;28.22;27.38;29.14;;
67306;Laerm;57661;51.436;5.978;2024-03-07T00:07:14;28.22;27.28;29.23;;
67306;Laerm;57661;51.436;5.978;2024-03-07T00:07:25;28.21;27.16;28.91;;
67306;Laerm;57661;51.436;5.978;2024-03-07T00:07:35;28.33;27.29;29.06;;
67306;Laerm;57661;51.436;5.978;2024-03-07T00:07:45;28.45;27.39;29.75;;
67306;Laerm;57661;51.436;5.978;2024-03-07T00:07:56;28.21;27.32;29.81;;
67306;Laerm;57661;51.436;5.978;2024-03-07T00:08:09;28.18;27.20;29.05;;
67306;Laerm;57661;51.436;5.978;2024-03-07T00:08:20;28.21;27.15;29.18;;
67306;Laerm;57661;51.436;5.978;2024-03-07T00:08:30;28.19;27.43;29.43;;
67306;Laerm;57661;51.436;5.978;2024-03-07T00:08:43;28.19;27.24;29.01;;
67306;Laerm;57661;51.436;5.978;2024-03-07T00:08:53;28.23;27.21;29.18;;
67306;Laerm;57661;51.436;5.978;2024-03-07T00:09:05;28.21;27.21;29.13;;
67306;Laerm;57661;51.436;5.978;2024-03-07T00:09:15;28.25;27.35;29.22;;
67306;Laerm;57661;51.436;5.978;2024-03-07T00:09:26;28.19;27.28;29.04;;
67306;Laerm;57661;51.436;5.978;2024-03-07T00:09:36;28.22;27.22;29.15;;
67306;Laerm;57661;51.436;5.978;2024-03-07T00:09:46;28.21;27.25;29.18;;
67306;Laerm;57661;51.436;5.978;2024-03-07T00:10:01;28.18;27.32;29.11;;
67306;Laerm;57661;51.436;5.978;2024-03-07T00:10:13;28.22;27.39;29.10;;
67306;Laerm;57661;51.436;5.978;2024-03-07T00:10:25;28.21;27.22;29.04;;
67306;Laerm;57661;51.436;5.978;2024-03-07T00:10:35;28.21;27.20;29.44;;
67306;Laerm;57661;51.436;5.978;2024-03-07T00:10:46;28.20;27.13;29.12;;
67306;Laerm;57661;51.436;5.978;2024-03-07T00:10:56;28.24;27.28;29.36;;
67306;Laerm;57661;51.436;5.978;2024-03-07T00:11:06;28.22;27.12;31.08;;
67306;Laerm;57661;51.436;5.978;2024-03-07T00:11:17;28.23;27.17;29.03;;
67306;Laerm;57661;51.436;5.978;2024-03-07T00:11:27;28.21;27.37;29.17;;
67306;Laerm;57661;51.436;5.978;2024-03-07T00:11:38;28.22;27.41;29.12;;
67306;Laerm;57661;51.436;5.978;2024-03-07T00:11:48;28.85;27.38;37.62;;
67306;Laerm;57661;51.436;5.978;2024-03-07T00:11:58;28.66;27.27;31.03;;
67306;Laerm;57661;51.436;5.978;2024-03-07T00:12:09;28.22;27.17;29.26;;
67306;Laerm;57661;51.436;5.978;2024-03-07T00:12:19;28.20;27.49;29.20;;
67306;Laerm;57661;51.436;5.978;2024-03-07T00:12:36;28.22;27.32;29.09;;
67306;Laerm;57661;51.436;5.978;2024-03-07T00:12:47;28.18;27.22;29.13;;
67306;Laerm;57661;51.436;5.978;2024-03-07T00:12:58;28.23;27.40;29.04;;
67306;Laerm;57661;51.436;5.978;2024-03-07T00:13:08;28.19;27.13;29.30;;
67306;Laerm;57661;51.436;5.978;2024-03-07T00:13:18;28.21;27.21;29.19;;
67306;Laerm;57661;51.436;5.978;2024-03-07T00:13:28;28.22;27.36;29.20;;
67306;Laerm;57661;51.436;5.978;2024-03-07T00:13:41;28.22;27.25;29.22;;
67306;Laerm;57661;51.436;5.978;2024-03-07T00:13:52;28.23;27.14;29.20;;
67306;Laerm;57661;51.436;5.978;2024-03-07T00:14:05;28.20;27.13;29.01;;
67306;Laerm;57661;51.436;5.978;2024-03-07T00:14:16;28.16;26.98;29.10;;
67306;Laerm;57661;51.436;5.978;2024-03-07T00:14:26;28.22;27.11;29.05;;
67306;Laerm;57661;51.436;5.978;2024-03-07T00:14:39;28.20;27.34;29.16;;
67306;Laerm;57661;51.436;5.978;2024-03-07T00:14:53;28.20;26.93;29.21;;
67306;Laerm;57661;51.436;5.978;2024-03-07T00:15:03;28.22;27.19;28.99;;
67306;Laerm;57661;51.436;5.978;2024-03-07T00:15:13;28.20;27.40;29.13;;
67306;Laerm;57661;51.436;5.978;2024-03-07T00:15:24;28.22;27.23;29.06;;
67306;Laerm;57661;51.436;5.978;2024-03-07T00:15:34;28.20;27.21;29.10;;
67306;Laerm;57661;51.436;5.978;2024-03-07T00:15:44;28.25;27.18;29.21;;
67306;Laerm;57661;51.436;5.978;2024-03-07T00:15:54;28.22;27.19;29.08;;
67306;Laerm;57661;51.436;5.978;2024-03-07T00:16:05;28.22;27.39;29.15;;
67306;Laerm;57661;51.436;5.978;2024-03-07T00:16:15;28.22;27.33;29.12;;
67306;Laerm;57661;51.436;5.978;2024-03-07T00:16:25;28.22;27.17;28.93;;
67306;Laerm;57661;51.436;5.978;2024-03-07T00:16:35;28.22;27.29;29.09;;
67306;Laerm;57661;51.436;5.978;2024-03-07T00:16:45;28.17;27.34;29.16;;
67306;Laerm;57661;51.436;5.978;2024-03-07T00:16:56;28.23;27.33;29.10;;
67306;Laerm;57661;51.436;5.978;2024-03-07T00:17:07;28.19;27.20;29.10;;
67306;Laerm;57661;51.436;5.978;2024-03-07T00:17:17;28.23;27.00;29.10;;
67306;Laerm;57661;51.436;5.978;2024-03-07T00:17:27;28.20;27.23;29.31;;
67306;Laerm;57661;51.436;5.978;2024-03-07T00:17:38;28.21;27.29;29.50;;
67306;Laerm;57661;51.436;5.978;2024-03-07T00:17:48;28.22;26.92;29.22;;
67306;Laerm;57661;51.436;5.978;2024-03-07T00:17:58;28.20;27.23;29.11;;
67306;Laerm;57661;51.436;5.978;2024-03-07T00:18:10;28.20;27.30;29.43;;
67306;Laerm;57661;51.436;5.978;2024-03-07T00:18:21;28.21;27.43;29.11;;
67306;Laerm;57661;51.436;5.978;2024-03-07T00:18:31;28.18;27.06;28.97;;
67306;Laerm;57661;51.436;5.978;2024-03-07T00:18:41;28.23;27.14;29.14;;
67306;Laerm;57661;51.436;5.978;2024-03-07T00:18:51;28.20;27.15;29.25;;
67306;Laerm;57661;51.436;5.978;2024-03-07T00:19:02;28.23;27.05;28.99;;
67306;Laerm;57661;51.436;5.978;2024-03-07T00:19:12;28.20;27.05;29.30;;
67306;Laerm;57661;51.436;5.978;2024-03-07T00:19:24;28.21;27.20;29.26;;
67306;Laerm;57661;51.436;5.978;2024-03-07T00:19:36;28.22;27.06;29.30;;
67306;Laerm;57661;51.436;5.978;2024-03-07T00:19:46;28.21;27.27;29.03;;
67306;Laerm;57661;51.436;5.978;2024-03-07T00:19:58;28.23;27.15;29.11;;
67306;Laerm;57661;51.436;5.978;2024-03-07T00:20:08;28.22;27.01;29.02;;
67306;Laerm;57661;51.436;5.978;2024-03-07T00:20:19;28.21;27.23;29.34;;
67306;Laerm;57661;51.436;5.978;2024-03-07T00:20:30;28.20;27.19;29.21;;
67306;Laerm;57661;51.436;5.978;2024-03-07T00:20:43;28.19;27.14;28.97;;
67306;Laerm;57661;51.436;5.978;2024-03-07T00:20:53;28.17;27.35;29.05;;
67306;Laerm;57661;51.436;5.978;2024-03-07T00:21:04;28.24;27.26;29.14;;
67306;Laerm;57661;51.436;5.978;2024-03-07T00:21:15;28.20;27.18;29.37;;
67306;Laerm;57661;51.436;5.978;2024-03-07T00:21:25;28.21;27.00;29.32;;
67306;Laerm;57661;51.436;5.978;2024-03-07T00:21:35;28.21;27.01;29.31;;
67306;Laerm;57661;51.436;5.978;2024-03-07T00:21:45;28.18;27.31;28.93;;
67306;Laerm;57661;51.436;5.978;2024-03-07T00:21:58;28.25;27.19;29.28;;
67306;Laerm;57661;51.436;5.978;2024-03-07T00:22:08;28.20;27.27;29.10;;
67306;Laerm;57661;51.436;5.978;2024-03-07T00:22:19;28.20;27.18;29.26;;
67306;Laerm;57661;51.436;5.978;2024-03-07T00:22:29;28.26;27.34;29.18;;
67306;Laerm;57661;51.436;5.978;2024-03-07T00:22:42;28.24;27.43;29.10;;
67306;Laerm;57661;51.436;5.978;2024-03-07T00:22:53;28.19;27.26;29.09;;
67306;Laerm;57661;51.436;5.978;2024-03-07T00:23:06;28.24;27.28;29.25;;
67306;Laerm;57661;51.436;5.978;2024-03-07T00:23:16;28.20;27.37;28.90;;
67306;Laerm;57661;51.436;5.978;2024-03-07T00:23:26;28.21;27.46;29.07;;
67306;Laerm;57661;51.436;5.978;2024-03-07T00:23:37;28.19;27.37;29.08;;
67306;Laerm;57661;51.436;5.978;2024-03-07T00:23:47;28.20;27.29;29.07;;
67306;Laerm;57661;51.436;5.978;2024-03-07T00:23:58;28.23;27.02;29.15;;
67306;Laerm;57661;51.436;5.978;2024-03-07T00:24:09;28.18;27.23;29.17;;
67306;Laerm;57661;51.436;5.978;2024-03-07T00:24:20;28.19;27.31;29.14;;
67306;Laerm;57661;51.436;5.978;2024-03-07T00:24:31;28.20;27.22;29.21;;
67306;Laerm;57661;51.436;5.978;2024-03-07T00:24:41;28.22;27.40;29.06;;
67306;Laerm;57661;51.436;5.978;2024-03-07T00:24:53;28.19;27.23;29.33;;
67306;Laerm;57661;51.436;5.978;2024-03-07T00:25:03;28.20;27.07;29.19;;
67306;Laerm;57661;51.436;5.978;2024-03-07T00:25:16;28.21;27.08;28.92;;
67306;Laerm;57661;51.436;5.978;2024-03-07T00:25:29;28.23;27.13;29.18;;
67306;Laerm;57661;51.436;5.978;2024-03-07T00:25:41;28.20;27.09;29.13;;
67306;Laerm;57661;51.436;5.978;2024-03-07T00:25:51;28.22;27.47;29.06;;
67306;Laerm;57661;51.436;5.978;2024-03-07T00:26:01;28.21;27.30;29.12;;
67306;Laerm;57661;51.436;5.978;2024-03-07T00:26:12;28.18;27.41;29.09;;
67306;Laerm;57661;51.436;5.978;2024-03-07T00:26:26;28.23;27.12;29.21;;
67306;Laerm;57661;51.436;5.978;2024-03-07T00:26:36;28.19;27.12;29.08;;
67306;Laerm;57661;51.436;5.978;2024-03-07T00:26:46;28.18;27.42;28.81;;
67306;Laerm;57661;51.436;5.978;2024-03-07T00:26:56;28.20;27.33;29.06;;
67306;Laerm;57661;51.436;5.978;2024-03-07T00:27:07;28.21;27.24;29.12;;
67306;Laerm;57661;51.436;5.978;2024-03-07T00:27:17;28.23;27.18;29.13;;
67306;Laerm;57661;51.436;5.978;2024-03-07T00:27:27;28.23;27.29;29.18;;
67306;Laerm;57661;51.436;5.978;2024-03-07T00:27:37;28.72;27.24;41.97;;
67306;Laerm;57661;51.436;5.978;2024-03-07T00:27:48;28.23;27.36;29.38;;
67306;Laerm;57661;51.436;5.978;2024-03-07T00:27:58;28.22;27.08;29.19;;
67306;Laerm;57661;51.436;5.978;2024-03-07T00:28:12;28.22;27.22;29.17;;
67306;Laerm;57661;51.436;5.978;2024-03-07T00:28:23;28.23;27.10;29.05;;
67306;Laerm;57661;51.436;5.978;2024-03-07T00:28:33;28.21;27.38;29.16;;
67306;Laerm;57661;51.436;5.978;2024-03-07T00:28:49;28.21;27.33;29.19;;
67306;Laerm;57661;51.436;5.978;2024-03-07T00:28:59;28.21;27.30;29.10;;
67306;Laerm;57661;51.436;5.978;2024-03-07T00:29:09;28.20;27.29;28.99;;
67306;Laerm;57661;51.436;5.978;2024-03-07T00:29:20;28.19;27.16;29.04;;
67306;Laerm;57661;51.436;5.978;2024-03-07T00:29:30;28.16;26.96;29.10;;
67306;Laerm;57661;51.436;5.978;2024-03-07T00:29:41;28.22;27.17;29.21;;
67306;Laerm;57661;51.436;5.978;2024-03-07T00:29:51;28.16;27.35;29.29;;
67306;Laerm;57661;51.436;5.978;2024-03-07T00:30:07;28.21;27.13;29.09;;
67306;Laerm;57661;51.436;5.978;2024-03-07T00:30:19;28.24;27.34;29.08;;
67306;Laerm;57661;51.436;5.978;2024-03-07T00:30:30;28.23;26.75;29.16;;
67306;Laerm;57661;51.436;5.978;2024-03-07T00:30:40;28.23;26.79;29.20;;
67306;Laerm;57661;51.436;5.978;2024-03-07T00:30:50;28.38;27.28;35.83;;
67306;Laerm;57661;51.436;5.978;2024-03-07T00:31:01;28.19;27.37;29.04;;
67306;Laerm;57661;51.436;5.978;2024-03-07T00:31:11;29.22;27.26;38.37;;
67306;Laerm;57661;51.436;5.978;2024-03-07T00:31:21;28.22;27.21;29.39;;
67306;Laerm;57661;51.436;5.978;2024-03-07T00:31:31;28.20;27.27;29.13;;
67306;Laerm;57661;51.436;5.978;2024-03-07T00:31:41;28.24;27.44;29.04;;
67306;Laerm;57661;51.436;5.978;2024-03-07T00:31:52;28.20;26.94;29.09;;
67306;Laerm;57661;51.436;5.978;2024-03-07T00:32:02;28.18;27.22;29.40;;
67306;Laerm;57661;51.436;5.978;2024-03-07T00:32:12;28.24;27.41;29.05;;
67306;Laerm;57661;51.436;5.978;2024-03-07T00:32:24;28.24;27.46;29.14;;
67306;Laerm;57661;51.436;5.978;2024-03-07T00:32:34;28.22;27.44;29.34;;
67306;Laerm;57661;51.436;5.978;2024-03-07T00:32:49;28.20;26.93;29.45;;
67306;Laerm;57661;51.436;5.978;2024-03-07T00:32:59;28.24;27.24;29.13;;
67306;Laerm;57661;51.436;5.978;2024-03-07T00:33:09;28.22;27.27;29.07;;
67306;Laerm;57661;51.436;5.978;2024-03-07T00:33:20;28.20;27.39;29.10;;
67306;Laerm;57661;51.436;5.978;2024-03-07T00:33:31;28.23;27.30;28.99;;
67306;Laerm;57661;51.436;5.978;2024-03-07T00:33:42;28.20;27.21;29.14;;
67306;Laerm;57661;51.436;5.978;2024-03-07T00:33:53;28.21;27.40;29.76;;
67306;Laerm;57661;51.436;5.978;2024-03-07T00:34:03;28.21;27.17;29.14;;
67306;Laerm;57661;51.436;5.978;2024-03-07T00:34:13;28.22;27.31;29.19;;
67306;Laerm;57661;51.436;5.978;2024-03-07T00:34:26;28.19;27.17;29.09;;
67306;Laerm;57661;51.436;5.978;2024-03-07T00:34:36;28.21;27.16;29.08;;
67306;Laerm;57661;51.436;5.978;2024-03-07T00:34:50;28.20;27.32;29.18;;
67306;Laerm;57661;51.436;5.978;2024-03-07T00:35:00;28.22;27.27;29.25;;
67306;Laerm;57661;51.436;5.978;2024-03-07T00:35:10;28.16;27.17;29.12;;
67306;Laerm;57661;51.436;5.978;2024-03-07T00:35:20;28.20;27.36;29.33;;
67306;Laerm;57661;51.436;5.978;2024-03-07T00:35:31;28.18;26.97;28.99;;
67306;Laerm;57661;51.436;5.978;2024-03-07T00:35:41;28.18;27.23;29.19;;
67306;Laerm;57661;51.436;5.978;2024-03-07T00:35:51;28.22;27.12;29.00;;
67306;Laerm;57661;51.436;5.978;2024-03-07T00:36:01;28.23;27.31;29.12;;
67306;Laerm;57661;51.436;5.978;2024-03-07T00:36:12;28.23;27.35;29.12;;
67306;Laerm;57661;51.436;5.978;2024-03-07T00:36:22;28.21;27.25;29.11;;
67306;Laerm;57661;51.436;5.978;2024-03-07T00:36:32;28.23;27.18;29.11;;
67306;Laerm;57661;51.436;5.978;2024-03-07T00:36:43;28.15;27.27;29.12;;
67306;Laerm;57661;51.436;5.978;2024-03-07T00:36:53;28.22;27.12;28.95;;
67306;Laerm;57661;51.436;5.978;2024-03-07T00:37:06;28.19;27.26;29.05;;
67306;Laerm;57661;51.436;5.978;2024-03-07T00:37:17;28.21;27.00;29.89;;
67306;Laerm;57661;51.436;5.978;2024-03-07T00:37:27;28.19;26.77;29.15;;
67306;Laerm;57661;51.436;5.978;2024-03-07T00:37:37;28.19;27.09;28.99;;
67306;Laerm;57661;51.436;5.978;2024-03-07T00:37:48;28.21;27.40;29.05;;
67306;Laerm;57661;51.436;5.978;2024-03-07T00:37:58;28.20;27.17;29.10;;
67306;Laerm;57661;51.436;5.978;2024-03-07T00:38:08;28.20;27.27;29.05;;
67306;Laerm;57661;51.436;5.978;2024-03-07T00:38:21;28.19;27.22;29.05;;
67306;Laerm;57661;51.436;5.978;2024-03-07T00:38:31;28.20;27.22;29.24;;
67306;Laerm;57661;51.436;5.978;2024-03-07T00:38:42;28.21;27.10;29.05;;
67306;Laerm;57661;51.436;5.978;2024-03-07T00:38:52;28.15;26.86;29.01;;
67306;Laerm;57661;51.436;5.978;2024-03-07T00:39:02;28.20;27.20;29.01;;
67306;Laerm;57661;51.436;5.978;2024-03-07T00:39:12;28.21;27.28;29.02;;
67306;Laerm;57661;51.436;5.978;2024-03-07T00:39:23;28.21;27.22;29.28;;
67306;Laerm;57661;51.436;5.978;2024-03-07T00:39:34;28.19;26.75;29.20;;
67306;Laerm;57661;51.436;5.978;2024-03-07T00:39:44;28.21;27.47;29.10;;
67306;Laerm;57661;51.436;5.978;2024-03-07T00:39:55;28.23;27.27;29.43;;
67306;Laerm;57661;51.436;5.978;2024-03-07T00:40:05;28.22;27.25;29.06;;
67306;Laerm;57661;51.436;5.978;2024-03-07T00:40:16;28.25;27.14;33.35;;
67306;Laerm;57661;51.436;5.978;2024-03-07T00:40:26;28.21;27.22;28.95;;
67306;Laerm;57661;51.436;5.978;2024-03-07T00:40:36;28.20;27.24;29.12;;
67306;Laerm;57661;51.436;5.978;2024-03-07T00:40:46;28.20;27.10;29.21;;
67306;Laerm;57661;51.436;5.978;2024-03-07T00:40:57;28.19;27.35;29.00;;
67306;Laerm;57661;51.436;5.978;2024-03-07T00:41:07;28.20;27.20;29.19;;
67306;Laerm;57661;51.436;5.978;2024-03-07T00:41:20;28.21;27.09;29.15;;
67306;Laerm;57661;51.436;5.978;2024-03-07T00:41:30;28.19;27.20;29.14;;
67306;Laerm;57661;51.436;5.978;2024-03-07T00:41:41;28.18;27.31;29.11;;
67306;Laerm;57661;51.436;5.978;2024-03-07T00:41:51;28.21;27.32;29.03;;
67306;Laerm;57661;51.436;5.978;2024-03-07T00:42:01;28.21;27.14;29.45;;
67306;Laerm;57661;51.436;5.978;2024-03-07T00:42:12;28.24;27.30;29.21;;
67306;Laerm;57661;51.436;5.978;2024-03-07T00:42:22;28.23;27.26;29.23;;
67306;Laerm;57661;51.436;5.978;2024-03-07T00:42:33;28.82;27.38;34.89;;
67306;Laerm;57661;51.436;5.978;2024-03-07T00:42:43;36.90;28.73;43.22;;
67306;Laerm;57661;51.436;5.978;2024-03-07T00:42:54;36.40;31.60;42.81;;
67306;Laerm;57661;51.436;5.978;2024-03-07T00:43:04;32.01;27.36;38.78;;
67306;Laerm;57661;51.436;5.978;2024-03-07T00:43:15;28.18;27.01;29.25;;
67306;Laerm;57661;51.436;5.978;2024-03-07T00:43:26;28.22;27.29;29.12;;
67306;Laerm;57661;51.436;5.978;2024-03-07T00:43:36;28.22;26.91;29.11;;
67306;Laerm;57661;51.436;5.978;2024-03-07T00:43:46;28.19;27.19;29.05;;
67306;Laerm;57661;51.436;5.978;2024-03-07T00:43:57;28.21;27.13;29.19;;
67306;Laerm;57661;51.436;5.978;2024-03-07T00:44:07;28.21;27.22;29.00;;
67306;Laerm;57661;51.436;5.978;2024-03-07T00:44:19;28.21;27.27;29.32;;
67306;Laerm;57661;51.436;5.978;2024-03-07T00:44:29;28.20;27.26;29.19;;
67306;Laerm;57661;51.436;5.978;2024-03-07T00:44:42;28.27;27.39;29.18;;
67306;Laerm;57661;51.436;5.978;2024-03-07T00:44:53;28.22;27.09;29.04;;
67306;Laerm;57661;51.436;5.978;2024-03-07T00:45:03;28.20;27.15;29.01;;
67306;Laerm;57661;51.436;5.978;2024-03-07T00:45:14;28.20;27.04;29.36;;
67306;Laerm;57661;51.436;5.978;2024-03-07T00:45:24;28.20;27.22;29.08;;
67306;Laerm;57661;51.436;5.978;2024-03-07T00:45:34;28.18;27.22;28.98;;
67306;Laerm;57661;51.436;5.978;2024-03-07T00:45:44;28.21;27.30;29.08;;
67306;Laerm;57661;51.436;5.978;2024-03-07T00:45:54;28.22;27.13;28.97;;
67306;Laerm;57661;51.436;5.978;2024-03-07T00:46:05;28.22;27.18;29.99;;
67306;Laerm;57661;51.436;5.978;2024-03-07T00:46:16;28.20;27.36;29.16;;
67306;Laerm;57661;51.436;5.978;2024-03-07T00:46:29;28.21;27.03;29.77;;
67306;Laerm;57661;51.436;5.978;2024-03-07T00:46:39;28.23;27.19;29.02;;
67306;Laerm;57661;51.436;5.978;2024-03-07T00:46:49;28.20;27.21;29.04;;
67306;Laerm;57661;51.436;5.978;2024-03-07T00:47:00;28.17;27.30;29.00;;
67306;Laerm;57661;51.436;5.978;2024-03-07T00:47:10;28.21;26.92;29.22;;
67306;Laerm;57661;51.436;5.978;2024-03-07T00:47:21;28.20;27.17;29.44;;
67306;Laerm;57661;51.436;5.978;2024-03-07T00:47:31;28.20;27.29;29.22;;
67306;Laerm;57661;51.436;5.978;2024-03-07T00:47:42;28.23;27.30;29.21;;
67306;Laerm;57661;51.436;5.978;2024-03-07T00:47:52;28.21;27.28;28.96;;
67306;Laerm;57661;51.436;5.978;2024-03-07T00:48:03;28.21;26.93;29.13;;
67306;Laerm;57661;51.436;5.978;2024-03-07T00:48:13;28.20;27.33;28.99;;
67306;Laerm;57661;51.436;5.978;2024-03-07T00:48:23;28.20;27.31;28.91;;
67306;Laerm;57661;51.436;5.978;2024-03-07T00:48:34;28.20;27.29;28.91;;
67306;Laerm;57661;51.436;5.978;2024-03-07T00:48:45;28.18;27.12;29.01;;
67306;Laerm;57661;51.436;5.978;2024-03-07T00:48:56;28.21;27.20;29.21;;
67306;Laerm;57661;51.436;5.978;2024-03-07T00:49:10;28.19;27.19;29.18;;
67306;Laerm;57661;51.436;5.978;2024-03-07T00:49:20;28.21;27.28;29.12;;
67306;Laerm;57661;51.436;5.978;2024-03-07T00:49:30;28.21;27.39;29.20;;
67306;Laerm;57661;51.436;5.978;2024-03-07T00:49:40;28.19;27.21;29.07;;
67306;Laerm;57661;51.436;5.978;2024-03-07T00:49:51;28.20;27.01;29.18;;
67306;Laerm;57661;51.436;5.978;2024-03-07T00:50:01;28.24;27.10;29.07;;
67306;Laerm;57661;51.436;5.978;2024-03-07T00:50:11;28.24;27.24;29.19;;
67306;Laerm;57661;51.436;5.978;2024-03-07T00:50:21;28.19;27.25;29.27;;
67306;Laerm;57661;51.436;5.978;2024-03-07T00:50:31;28.17;27.09;29.20;;
67306;Laerm;57661;51.436;5.978;2024-03-07T00:50:42;28.17;27.27;29.09;;
67306;Laerm;57661;51.436;5.978;2024-03-07T00:50:52;28.20;27.15;28.98;;
67306;Laerm;57661;51.436;5.978;2024-03-07T00:51:06;28.20;27.33;28.98;;
67306;Laerm;57661;51.436;5.978;2024-03-07T00:51:16;28.21;27.29;29.10;;
67306;Laerm;57661;51.436;5.978;2024-03-07T00:51:29;28.20;27.31;29.07;;
67306;Laerm;57661;51.436;5.978;2024-03-07T00:52:10;28.20;27.29;29.51;;
67306;Laerm;57661;51.436;5.978;2024-03-07T00:52:20;28.22;27.35;28.99;;
67306;Laerm;57661;51.436;5.978;2024-03-07T00:52:31;28.19;27.02;29.42;;
67306;Laerm;57661;51.436;5.978;2024-03-07T00:52:42;28.22;27.14;29.15;;
67306;Laerm;57661;51.436;5.978;2024-03-07T00:52:52;28.19;27.40;29.04;;
67306;Laerm;57661;51.436;5.978;2024-03-07T00:53:02;28.22;27.28;29.18;;
67306;Laerm;57661;51.436;5.978;2024-03-07T00:53:13;28.18;27.19;29.02;;
67306;Laerm;57661;51.436;5.978;2024-03-07T00:53:26;28.22;27.33;29.01;;
67306;Laerm;57661;51.436;5.978;2024-03-07T00:53:36;28.19;27.23;28.98;;
67306;Laerm;57661;51.436;5.978;2024-03-07T00:53:46;28.19;27.25;29.10;;
67306;Laerm;57661;51.436;5.978;2024-03-07T00:53:57;28.18;27.08;29.09;;
67306;Laerm;57661;51.436;5.978;2024-03-07T00:54:08;28.16;27.26;29.02;;
67306;Laerm;57661;51.436;5.978;2024-03-07T00:54:18;28.23;27.33;30.71;;
67306;Laerm;57661;51.436;5.978;2024-03-07T00:54:28;28.23;26.92;29.10;;
67306;Laerm;57661;51.436;5.978;2024-03-07T00:54:38;28.22;27.20;29.06;;
67306;Laerm;57661;51.436;5.978;2024-03-07T00:54:49;28.23;27.33;29.18;;
67306;Laerm;57661;51.436;5.978;2024-03-07T00:54:59;28.22;27.15;29.11;;
67306;Laerm;57661;51.436;5.978;2024-03-07T00:55:10;28.18;26.93;28.98;;
67306;Laerm;57661;51.436;5.978;2024-03-07T00:55:20;28.21;27.31;29.04;;
67306;Laerm;57661;51.436;5.978;2024-03-07T00:55:30;28.22;27.41;29.37;;
67306;Laerm;57661;51.436;5.978;2024-03-07T00:55:40;28.19;27.13;29.06;;
67306;Laerm;57661;51.436;5.978;2024-03-07T00:55:50;28.23;27.02;29.07;;
67306;Laerm;57661;51.436;5.978;2024-03-07T00:56:06;28.18;27.27;29.37;;
67306;Laerm;57661;51.436;5.978;2024-03-07T00:56:20;28.18;27.22;29.25;;
67306;Laerm;57661;51.436;5.978;2024-03-07T00:56:31;28.18;27.15;29.18;;
67306;Laerm;57661;51.436;5.978;2024-03-07T00:56:41;28.22;27.39;29.40;;
67306;Laerm;57661;51.436;5.978;2024-03-07T00:56:51;28.20;27.39;28.96;;
67306;Laerm;57661;51.436;5.978;2024-03-07T00:57:01;28.23;27.34;29.19;;
67306;Laerm;57661;51.436;5.978;2024-03-07T00:57:12;28.19;27.34;28.96;;
67306;Laerm;57661;51.436;5.978;2024-03-07T00:57:25;28.19;27.18;29.14;;
67306;Laerm;57661;51.436;5.978;2024-03-07T00:57:35;28.20;27.22;29.28;;
67306;Laerm;57661;51.436;5.978;2024-03-07T00:57:45;28.19;27.28;29.18;;
67306;Laerm;57661;51.436;5.978;2024-03-07T00:57:56;28.20;27.36;28.97;;
67306;Laerm;57661;51.436;5.978;2024-03-07T00:58:06;28.24;27.26;29.06;;
67306;Laerm;57661;51.436;5.978;2024-03-07T00:58:16;28.16;27.29;29.12;;
67306;Laerm;57661;51.436;5.978;2024-03-07T00:58:27;28.22;27.33;28.98;;
67306;Laerm;57661;51.436;5.978;2024-03-07T00:58:37;28.22;27.18;28.93;;
67306;Laerm;57661;51.436;5.978;2024-03-07T00:58:48;28.23;27.38;28.98;;
67306;Laerm;57661;51.436;5.978;2024-03-07T00:58:58;28.22;27.24;29.17;;
67306;Laerm;57661;51.436;5.978;2024-03-07T00:59:09;28.20;27.31;29.18;;
67306;Laerm;57661;51.436;5.978;2024-03-07T00:59:19;28.23;27.13;29.23;;
67306;Laerm;57661;51.436;5.978;2024-03-07T00:59:29;28.19;27.30;29.13;;
67306;Laerm;57661;51.436;5.978;2024-03-07T00:59:39;28.23;27.23;29.16;;
67306;Laerm;57661;51.436;5.978;2024-03-07T00:59:50;28.19;27.11;29.19;;
67306;Laerm;57661;51.436;5.978;2024-03-07T01:00:00;28.19;27.23;29.09;;
67306;Laerm;57661;51.436;5.978;2024-03-07T01:00:10;31.15;27.13;39.89;;
67306;Laerm;57661;51.436;5.978;2024-03-07T01:00:23;28.23;27.26;29.07;;
67306;Laerm;57661;51.436;5.978;2024-03-07T01:00:34;28.22;27.26;29.02;;
67306;Laerm;57661;51.436;5.978;2024-03-07T01:00:44;28.21;27.18;29.10;;
67306;Laerm;57661;51.436;5.978;2024-03-07T01:00:54;28.21;27.05;29.13;;
67306;Laerm;57661;51.436;5.978;2024-03-07T01:01:04;28.21;27.41;29.09;;